^^
Datos históricos de la estación: Murcia-Puente Tocinos
Diario Informe para Mayo 9, 2019 Unidades:  Métrico    Ingés   Ambas
Diario Semanal Mensual Anual
  Máxima: Mínima: Promedio:
Temperatura: 40.3 °C 24.1 °C 32.2 °C
Punto de rocio: 22.2 °C 9.6 °C 14 °C
Humedad: 65% 17% 36%
Velocidad viento: 16.4km/h 0km/h 6.8km/h
Racha viento: 27.8km/h - -
Viento- - Sur
Presión: 1011.9 hPa 1008.2 hPa -
Precipitación: 0.0 mm    
 
 
Tabla de datos para Mayo 9, 2019
Hora Temperatura Punto de rocio Presión Viento Velocidad viento Racha viento Humedad Intensidad lluvia(por hora) Nubes
00:04 28.5 °C 17.7 °C 1011.3 hPa NO 2.3 km/h 6.4 km/h 52% 0.0 mm
00:09 28.5 °C 17.4 °C 1011.3 hPa NO 1.9 km/h 7.4 km/h 51% 0.0 mm
00:14 28.6 °C 17.5 °C 1011.3 hPa Calm   8 km/h 51.1% 0.0 mm
00:19 28.6 °C 17.5 °C 1011.3 hPa NNE 0.3 km/h 5.6 km/h 51% 0.0 mm
00:24 28.6 °C 17.4 °C 1011.2 hPa NNE 2.2 km/h 5.8 km/h 51% 0.0 mm
00:29 28.5 °C 17.6 °C 1011.2 hPa NE 2.4 km/h 7.4 km/h 51.6% 0.0 mm
00:34 28.4 °C 17.7 °C 1011.2 hPa NE 3.2 km/h 8 km/h 52.4% 0.0 mm
00:39 28.3 °C 17.8 °C 1011.1 hPa NE 3.1 km/h 4.8 km/h 53% 0.0 mm
00:44 28.2 °C 17.8 °C 1011.1 hPa NE 2.2 km/h 5 km/h 53.2% 0.0 mm
00:49 28.2 °C 18 °C 1011.2 hPa NNO 2.2 km/h 5.8 km/h 54% 0.0 mm
00:54 28.1 °C 18 °C 1011.2 hPa NO 2.2 km/h 6.4 km/h 54.3% 0.0 mm
00:59 28 °C 18.2 °C 1011.2 hPa NO 2.5 km/h 6.4 km/h 55.1% 0.0 mm
01:04 27.9 °C 18.3 °C 1011.3 hPa NO 3.9 km/h 7.4 km/h 56% 0.0 mm
01:09 27.8 °C 18.6 °C 1011.3 hPa NO 3.7 km/h 8 km/h 57% 0.0 mm
01:14 27.8 °C 18.5 °C 1011.3 hPa NO 2.9 km/h 3.7 km/h 57% 0.0 mm
01:19 27.7 °C 18.5 °C 1011.3 hPa NO 2.5 km/h 3.2 km/h 57.4% 0.0 mm
01:24 27.7 °C 18.6 °C 1011.3 hPa Calm     57.9% 0.0 mm
01:29 27.7 °C 18.5 °C 1011.3 hPa Calm   3.9 km/h 57.3% 0.0 mm
01:34 27.7 °C 18.4 °C 1011.3 hPa Calm   3.7 km/h 57% 0.0 mm
01:39 27.6 °C 18.5 °C 1011.3 hPa Calm   4.7 km/h 57.7% 0.0 mm
01:44 27.6 °C 18.6 °C 1011.3 hPa Calm   4.8 km/h 58% 0.0 mm
01:49 27.6 °C 18.7 °C 1011.3 hPa Calm   3.7 km/h 58.5% 0.0 mm
01:54 27.6 °C 18.7 °C 1011.3 hPa Calm   9.3 km/h 58.3% 0.0 mm
01:59 27.6 °C 18.5 °C 1011.3 hPa SSE 0.8 km/h 9.7 km/h 57.5% 0.0 mm
02:04 27.6 °C 18.1 °C 1011.4 hPa Sur 4.6 km/h 8 km/h 56.3% 0.0 mm
02:09 27.6 °C 17.9 °C 1011.4 hPa SSE 4.4 km/h 7.4 km/h 55.6% 0.0 mm
02:14 27.6 °C 17.7 °C 1011.4 hPa Sur 3.2 km/h 8 km/h 54.9% 0.0 mm
02:19 27.6 °C 16.9 °C 1011.4 hPa Sur 3.5 km/h 8 km/h 52.1% 0.0 mm
02:24 27.6 °C 15.6 °C 1011.4 hPa SSO 5 km/h 8 km/h 48.2% 0.0 mm
02:29 27.6 °C 15.1 °C 1011.4 hPa Sur 4.9 km/h 8 km/h 46.3% 0.0 mm
02:34 27.7 °C 15.8 °C 1011.5 hPa SSE 4.7 km/h 8 km/h 48.3% 0.0 mm
02:39 27.8 °C 16.7 °C 1011.5 hPa SSE 4.4 km/h 8 km/h 51% 0.0 mm
02:44 27.7 °C 15.9 °C 1011.5 hPa SSE 3.2 km/h 7.4 km/h 48.5% 0.0 mm
02:49 27.6 °C 14.6 °C 1011.5 hPa Sur 3.4 km/h 8 km/h 45.1% 0.0 mm
02:54 27.5 °C 14.5 °C 1011.3 hPa Sur 4.7 km/h 8 km/h 45% 0.0 mm
02:59 27.4 °C 14.5 °C 1011.3 hPa Sur 4.3 km/h 5.8 km/h 45.1% 0.0 mm
03:04 27.4 °C 15.6 °C 1011.3 hPa Sur 2.9 km/h 6.4 km/h 48.6% 0.0 mm
03:09 27.3 °C 15.2 °C 1011.3 hPa SSE 3.1 km/h 9.5 km/h 47.8% 0.0 mm
03:14 27.1 °C 14.9 °C 1011.3 hPa SSE 4.7 km/h 9.7 km/h 47.4% 0.0 mm
03:19 26.9 °C 14.5 °C 1011.3 hPa Sur 4.7 km/h 9.5 km/h 46.7% 0.0 mm
03:24 26.8 °C 14.1 °C 1011.3 hPa Sur 5 km/h 9.7 km/h 45.9% 0.0 mm
03:29 26.7 °C 13.8 °C 1011.3 hPa Sur 5.2 km/h 11.9 km/h 45.1% 0.0 mm
03:34 26.6 °C 13.7 °C 1011.3 hPa Sur 6.4 km/h 11.3 km/h 45% 0.0 mm
03:39 26.6 °C 13.4 °C 1011.2 hPa SSO 6.4 km/h 9.7 km/h 44.3% 0.0 mm
03:44 26.5 °C 13.3 °C 1011.2 hPa SSO 5.8 km/h 9.7 km/h 44% 0.0 mm
03:49 26.6 °C 13.3 °C 1011.2 hPa SO 5.6 km/h 8 km/h 44% 0.0 mm
03:54 26.6 °C 13.1 °C 1011.1 hPa SO 4.7 km/h 8.4 km/h 43.2% 0.0 mm
03:59 26.6 °C 13 °C 1011.1 hPa SO 4.7 km/h 8 km/h 43% 0.0 mm
04:04 26.6 °C 13 °C 1011.1 hPa SO 5 km/h 8 km/h 43% 0.0 mm
04:09 26.6 °C 12.8 °C 1011.1 hPa SSO 5 km/h 8.4 km/h 42.6% 0.0 mm
04:14 26.6 °C 12.8 °C 1011.1 hPa SSO 5 km/h 8.4 km/h 42.6% 0.0 mm
04:19 26.5 °C 12.6 °C 1011.1 hPa SO 5 km/h 9.5 km/h 42.1% 0.0 mm
04:24 26.5 °C 12.6 °C 1011.1 hPa SO 5 km/h 9.7 km/h 42% 0.0 mm
04:29 26.5 °C 12.6 °C 1011.1 hPa SSO 4.9 km/h 9.3 km/h 42% 0.0 mm
04:34 26.5 °C 12.6 °C 1011.1 hPa SO 4.7 km/h 9.7 km/h 42% 0.0 mm
04:39 26.4 °C 12.5 °C 1011.1 hPa SO 4.7 km/h 8.7 km/h 42% 0.0 mm
04:44 26.4 °C 12.4 °C 1011.1 hPa SO 5 km/h 9.7 km/h 42% 0.0 mm
04:49 26.3 °C 12.4 °C 1011.1 hPa SSO 5.1 km/h 10 km/h 42% 0.0 mm
04:54 26.2 °C 12.6 °C 1011.1 hPa Sur 5.8 km/h 9.7 km/h 42.9% 0.0 mm
04:59 26 °C 12.5 °C 1011.1 hPa Sur 5.8 km/h 9.7 km/h 43% 0.0 mm
05:04 25.9 °C 12.3 °C 1011.1 hPa SO 5.8 km/h 9.7 km/h 43% 0.0 mm
05:09 25.8 °C 12.4 °C 1011.0 hPa SO 5.7 km/h 9.7 km/h 43.3% 0.0 mm
05:14 25.8 °C 12.6 °C 1011.0 hPa SO 5 km/h 9.5 km/h 44% 0.0 mm
05:19 25.7 °C 12.6 °C 1011.1 hPa OSO 5.1 km/h 11.1 km/h 44% 0.0 mm
05:24 25.7 °C 12.5 °C 1011.1 hPa OSO 5.8 km/h 15.6 km/h 44% 0.0 mm
05:29 25.6 °C 12.4 °C 1011.1 hPa SO 5.9 km/h 16.1 km/h 44% 0.0 mm
05:34 25.4 °C 12.2 °C 1011.1 hPa SSO 6.9 km/h 14.5 km/h 43.9% 0.0 mm
05:39 25.4 °C 12.1 °C 1011.0 hPa SSO 7 km/h 12.9 km/h 43.5% 0.0 mm
05:44 25.3 °C 11.9 °C 1011.0 hPa Sur 7.6 km/h 13 km/h 43% 0.0 mm
05:49 25.2 °C 11.7 °C 1011.2 hPa Sur 7.7 km/h 14.8 km/h 43% 0.0 mm
05:54 25 °C 11.6 °C 1011.2 hPa SSO 8.4 km/h 14.8 km/h 43% 0.0 mm
05:59 25 °C 11.6 °C 1011.2 hPa SSO 8.4 km/h 14.5 km/h 43% 0.0 mm
06:04 25 °C 11.8 °C 1011.2 hPa SSO 8.4 km/h 14 km/h 43.9% 0.0 mm
06:09 25 °C 11.9 °C 1011.2 hPa SSO 8.4 km/h 14.8 km/h 44% 0.0 mm
06:14 25 °C 11.9 °C 1011.2 hPa SSO 8.7 km/h 14.5 km/h 44% 0.0 mm
06:19 25 °C 11.9 °C 1011.2 hPa Sur 8.5 km/h 12.9 km/h 44.1% 0.0 mm
06:24 24.9 °C 12.2 °C 1011.2 hPa SSO 7.6 km/h 13 km/h 45% 0.0 mm
06:29 24.9 °C 12.5 °C 1011.2 hPa Sur 7.6 km/h 12.9 km/h 46% 0.0 mm
06:34 24.9 °C 12.5 °C 1011.5 hPa SO 7.6 km/h 11.9 km/h 45.9% 0.0 mm
06:39 25.1 °C 12.3 °C 1011.5 hPa SO 7.4 km/h 11.3 km/h 45% 0.0 mm
06:44 25.2 °C 12.4 °C 1011.5 hPa SO 6.5 km/h 13 km/h 45% 0.0 mm
06:49 25.2 °C 12.4 °C 1011.5 hPa ONO 6.4 km/h 12.9 km/h 45% 0.0 mm
06:54 25.2 °C 12.4 °C 1011.4 hPa OSO 5.8 km/h 8 km/h 45% 0.0 mm
06:59 25 °C 12.2 °C 1011.4 hPa OSO 5.6 km/h 8.4 km/h 45% 0.0 mm
07:04 24.9 °C 12.2 °C 1011.5 hPa Oeste 5 km/h 8.7 km/h 45% 0.0 mm
07:09 24.8 °C 12.1 °C 1011.5 hPa OSO 5 km/h 9.3 km/h 45% 0.0 mm
07:14 24.8 °C 12 °C 1011.5 hPa OSO 5 km/h 9.7 km/h 45% 0.0 mm
07:19 24.7 °C 11.9 °C 1011.5 hPa OSO 5 km/h 8 km/h 45% 0.0 mm
07:24 24.7 °C 11.9 °C 1011.4 hPa SO 5 km/h 9.3 km/h 45% 0.0 mm
07:29 24.8 °C 12 °C 1011.4 hPa ONO 4.9 km/h 9.7 km/h 45% 0.0 mm
07:34 24.8 °C 12.2 °C 1011.5 hPa Oeste 4.7 km/h 6.4 km/h 45.4% 0.0 mm
07:39 24.8 °C 12.4 °C 1011.5 hPa SSO 4.5 km/h 7.4 km/h 46.2% 0.0 mm
07:44 24.7 °C 13 °C 1011.5 hPa ESE 3.9 km/h 8 km/h 48.2% 0.0 mm
07:49 24.5 °C 13.3 °C 1011.6 hPa SE 3.9 km/h 8 km/h 49.6% 0.0 mm
07:54 24.3 °C 13.2 °C 1011.6 hPa SSE 3.9 km/h 9.3 km/h 50% 0.0 mm
07:59 24.1 °C 13 °C 1011.6 hPa Sur 4 km/h 9.7 km/h 49.9% 0.0 mm
08:04 24.1 °C 13 °C 1011.6 hPa SSE 4.7 km/h 8 km/h 49.9% 0.0 mm
08:09 24.2 °C 12.8 °C 1011.6 hPa Sur 4.5 km/h 8 km/h 49% 0.0 mm
08:14 24.3 °C 12.9 °C 1011.6 hPa Sur 3.9 km/h 8 km/h 49% 0.0 mm
08:19 24.5 °C 12.8 °C 1011.6 hPa SSO 3.9 km/h 7.6 km/h 48.1% 0.0 mm
08:24 24.8 °C 12.9 °C 1011.5 hPa SSO 3.9 km/h 8.7 km/h 47.5% 0.0 mm
08:29 25 °C 12.7 °C 1011.4 hPa SO 4 km/h 9.7 km/h 46.4% 0.0 mm
08:34 25.3 °C 12.8 °C 1011.5 hPa SO 5 km/h 9.7 km/h 45.9% 0.0 mm
08:39 25.5 °C 12.6 °C 1011.5 hPa OSO 4.9 km/h 8 km/h 44.9% 0.0 mm
08:44 25.8 °C 12.6 °C 1011.5 hPa SSO 4.7 km/h 9.3 km/h 44.1% 0.0 mm
08:49 26 °C 12.7 °C 1011.6 hPa SO 4.8 km/h 9.7 km/h 43.8% 0.0 mm
08:54 26.2 °C 12.7 °C 1011.6 hPa SO 5.8 km/h 8.4 km/h 43.3% 0.0 mm
08:59 26.3 °C 12.7 °C 1011.6 hPa OSO 5.6 km/h 8.4 km/h 43% 0.0 mm
09:04 26.5 °C 12.7 °C 1011.7 hPa SO 4.7 km/h 8 km/h 42.5% 0.0 mm
09:09 26.8 °C 12.8 °C 1011.7 hPa SO 4.5 km/h 8.4 km/h 42% 0.0 mm
09:14 27 °C 12.9 °C 1011.7 hPa Sur 3.9 km/h 8 km/h 41.8% 0.0 mm
09:19 27.2 °C 12.8 °C 1011.8 hPa SSO 3.9 km/h 8 km/h 41% 0.0 mm
09:24 27.6 °C 13.1 °C 1011.8 hPa SSO 3.9 km/h 8 km/h 40.9% 0.0 mm
09:29 27.9 °C 13 °C 1011.8 hPa SSO 3.9 km/h 8.7 km/h 39.9% 0.0 mm
09:34 28.1 °C 12.9 °C 1011.8 hPa SSO 3.9 km/h 11.1 km/h 39.1% 0.0 mm
09:39 28.3 °C 12.6 °C 1011.8 hPa OSO 4 km/h 11.3 km/h 38.1% 0.0 mm
09:44 28.5 °C 12.2 °C 1011.8 hPa OSO 5 km/h 11.3 km/h 36.4% 0.0 mm
09:49 28.8 °C 11.8 °C 1011.8 hPa SO 5.3 km/h 13.7 km/h 35.1% 0.0 mm
09:54 28.9 °C 11.6 °C 1011.8 hPa SO 6.9 km/h 14.5 km/h 34.2% 0.0 mm
09:59 29.1 °C 11.6 °C 1011.8 hPa SO 7.2 km/h 15.6 km/h 34% 0.0 mm
10:04 29.3 °C 11.7 °C 1011.9 hPa SO 8.4 km/h 16.1 km/h 33.8% 0.0 mm
10:09 29.5 °C 11.5 °C 1011.9 hPa SO 8.4 km/h 14.5 km/h 33% 0.0 mm
10:14 29.7 °C 11.7 °C 1011.9 hPa SSO 8.4 km/h 12.9 km/h 33% 0.0 mm
10:19 29.8 °C 11.8 °C 1011.9 hPa SSO 8.4 km/h 14.8 km/h 32.8% 0.0 mm
10:24 30 °C 11.8 °C 1011.9 hPa SSO 8.4 km/h 17.2 km/h 32.6% 0.0 mm
10:29 30.2 °C 11.9 °C 1011.9 hPa Sur 8.6 km/h 17.7 km/h 32.4% 0.0 mm
10:34 30.5 °C 11.8 °C 1011.9 hPa SSO 10 km/h 17.7 km/h 31.8% 0.0 mm
10:39 30.9 °C 11.6 °C 1011.8 hPa SSO 9.7 km/h 14.5 km/h 30.7% 0.0 mm
10:44 31.3 °C 11.4 °C 1011.8 hPa SSO 8.4 km/h 15.6 km/h 29.5% 0.0 mm
10:49 31.7 °C 11.3 °C 1011.8 hPa Sur 8.5 km/h 16.1 km/h 28.8% 0.0 mm
10:54 31.8 °C 11.3 °C 1011.8 hPa Sur 9.5 km/h 15.6 km/h 28.5% 0.0 mm
10:59 32.2 °C 11.4 °C 1011.8 hPa SO 9.1 km/h 16.1 km/h 28.1% 0.0 mm
11:04 32.4 °C 11.1 °C 1011.8 hPa SO 7.6 km/h 14.8 km/h 27.2% 0.0 mm
11:09 32.6 °C 11.2 °C 1011.8 hPa SSO 7.7 km/h 18.5 km/h 27% 0.0 mm
11:14 32.7 °C 11.3 °C 1011.8 hPa SO 8.7 km/h 19.3 km/h 27% 0.0 mm
11:19 32.8 °C 11.3 °C 1011.8 hPa SO 8.8 km/h 15.6 km/h 27% 0.0 mm
11:24 32.9 °C 11.4 °C 1011.8 hPa SSO 9.5 km/h 16.1 km/h 27% 0.0 mm
11:29 33.2 °C 11.4 °C 1011.8 hPa OSO 9.1 km/h 13 km/h 26.5% 0.0 mm
11:34 33.4 °C 11.4 °C 1011.8 hPa Sur 6.5 km/h 12.9 km/h 26.1% 0.0 mm
11:39 33.7 °C 11.6 °C 1011.8 hPa OSO 6.5 km/h 11.3 km/h 26% 0.0 mm
11:44 33.9 °C 11.7 °C 1011.8 hPa SO 6.9 km/h 14 km/h 26% 0.0 mm
11:49 34.1 °C 11.7 °C 1011.8 hPa OSO 6.9 km/h 14.5 km/h 25.7% 0.0 mm
11:54 34.2 °C 11.7 °C 1011.7 hPa SO 6.5 km/h 14 km/h 25.6% 0.0 mm
11:59 34.5 °C 11.8 °C 1011.7 hPa SO 6.5 km/h 14.8 km/h 25.3% 0.0 mm
12:04 34.8 °C 11.8 °C 1011.7 hPa SO 6.9 km/h 14.8 km/h 24.9% 0.0 mm
12:09 35 °C 11.6 °C 1011.7 hPa SSO 6.9 km/h 14.8 km/h 24.3% 0.0 mm
12:14 35.2 °C 11.6 °C 1011.7 hPa SO 6.9 km/h 14.5 km/h 24% 0.0 mm
12:19 35.4 °C 11.7 °C 1011.7 hPa Oeste 6.9 km/h 15.6 km/h 23.8% 0.0 mm
12:24 35.7 °C 11.6 °C 1011.6 hPa SSO 6.9 km/h 16.1 km/h 23.4% 0.0 mm
12:29 35.7 °C 11.4 °C 1011.6 hPa SSO 7.2 km/h 14.8 km/h 23% 0.0 mm
12:34 35.7 °C 11.3 °C 1011.6 hPa Sur 8.7 km/h 14.5 km/h 23% 0.0 mm
12:39 35.9 °C 11.3 °C 1011.5 hPa SO 8.5 km/h 14.8 km/h 22.7% 0.0 mm
12:44 36.2 °C 11.4 °C 1011.5 hPa SO 7.6 km/h 14.8 km/h 22.5% 0.0 mm
12:49 36.3 °C 11.2 °C 1011.5 hPa Sur 7.7 km/h 16.1 km/h 22% 0.0 mm
12:54 36.3 °C 11.2 °C 1011.5 hPa SSE 8.7 km/h 16.1 km/h 22% 0.0 mm
12:59 36.6 °C 11 °C 1011.5 hPa SSO 8.4 km/h 13.7 km/h 21.4% 0.0 mm
13:04 36.7 °C 11.1 °C 1011.5 hPa SSO 6.9 km/h 14.5 km/h 21.5% 0.0 mm
13:09 36.8 °C 10.9 °C 1011.3 hPa SO 7 km/h 14.8 km/h 21% 0.0 mm
13:14 37 °C 11 °C 1011.3 hPa OSO 7.6 km/h 14.5 km/h 21% 0.0 mm
13:19 37.2 °C 11.1 °C 1011.3 hPa NO 7 km/h 8 km/h 20.8% 0.0 mm
13:24 37.5 °C 10.5 °C 1011.3 hPa NO 3.9 km/h 9.5 km/h 19.7% 0.0 mm
13:29 37.7 °C 10.2 °C 1011.3 hPa North 4 km/h 10 km/h 19% 0.0 mm
13:34 37.9 °C 10.1 °C 1011.3 hPa North 4.7 km/h 13 km/h 18.8% 0.0 mm
13:39 37.9 °C 9.7 °C 1011.1 hPa NE 4.9 km/h 12.9 km/h 18.2% 0.0 mm
13:44 37.8 °C 9.6 °C 1011.1 hPa NE 6.4 km/h 13 km/h 18.2% 0.0 mm
13:49 38.1 °C 9.6 °C 1011.1 hPa Este 6.2 km/h 12.9 km/h 18% 0.0 mm
13:54 38.2 °C 9.9 °C 1010.9 hPa ENE 5 km/h 16.7 km/h 18.2% 0.0 mm
13:59 38.3 °C 9.9 °C 1010.9 hPa ENE 5.3 km/h 16.1 km/h 18% 0.0 mm
14:04 38.6 °C 10 °C 1010.9 hPa SE 6.4 km/h 12.9 km/h 17.9% 0.0 mm
14:09 38.7 °C 9.7 °C 1010.8 hPa ESE 6.4 km/h 13 km/h 17.5% 0.0 mm
14:14 38.8 °C 10.1 °C 1010.8 hPa NE 5.8 km/h 12.9 km/h 17.8% 0.0 mm
14:19 38.9 °C 9.9 °C 1010.8 hPa ENE 5.7 km/h 11.3 km/h 17.6% 0.0 mm
14:24 39.1 °C 10 °C 1010.7 hPa North 5 km/h 11.3 km/h 17.5% 0.0 mm
14:29 39.2 °C 9.7 °C 1010.7 hPa ONO 5 km/h 11.3 km/h 17% 0.0 mm
14:34 39.3 °C 9.8 °C 1010.7 hPa ONO 5 km/h 9.5 km/h 17% 0.0 mm
14:39 39.4 °C 9.9 °C 1010.5 hPa NNE 4.9 km/h 9.7 km/h 17% 0.0 mm
14:44 39.6 °C 10 °C 1010.5 hPa Este 4.7 km/h 13 km/h 17% 0.0 mm
14:49 39.7 °C 10.1 °C 1010.5 hPa NE 4.7 km/h 12.9 km/h 17% 0.0 mm
14:54 39.8 °C 10.2 °C 1010.4 hPa ENE 4.7 km/h 13 km/h 17% 0.0 mm
14:59 39.8 °C 10.2 °C 1010.3 hPa ESE 4.7 km/h 13 km/h 17% 0.0 mm
15:04 39.9 °C 10.3 °C 1010.3 hPa ENE 5 km/h 14 km/h 17% 0.0 mm
15:09 40.1 °C 10.4 °C 1010.2 hPa NNE 5.2 km/h 15.6 km/h 17% 0.0 mm
15:14 39.9 °C 10.2 °C 1010.1 hPa NNE 6.4 km/h 16.1 km/h 17% 0.0 mm
15:19 40 °C 10.3 °C 1010.1 hPa NNE 6.5 km/h 13.7 km/h 17% 0.0 mm
15:24 40.1 °C 11.1 °C 1010.0 hPa Este 6.9 km/h 15.6 km/h 17.8% 0.0 mm
15:29 40.2 °C 12 °C 1009.9 hPa ESE 7.3 km/h 20.4 km/h 18.8% 0.0 mm
15:34 40.1 °C 12.3 °C 1009.9 hPa ESE 9.5 km/h 20.9 km/h 19.3% 0.0 mm
15:39 40.1 °C 12.8 °C 1009.8 hPa ESE 9.9 km/h 20.9 km/h 20% 0.0 mm
15:44 40 °C 12.8 °C 1009.8 hPa SSE 11.9 km/h 20.9 km/h 20% 0.0 mm
15:49 40.1 °C 13.1 °C 1009.8 hPa ESE 11.8 km/h 20.9 km/h 20.3% 0.0 mm
15:54 40.1 °C 13.4 °C 1009.7 hPa ESE 11.1 km/h 24.5 km/h 20.7% 0.0 mm
15:59 39.8 °C 13.4 °C 1009.7 hPa ESE 11.6 km/h 24.1 km/h 21% 0.0 mm
16:04 40 °C 13.5 °C 1009.7 hPa ENE 13.7 km/h 22.5 km/h 21% 0.0 mm
16:09 40.1 °C 13.1 °C 1009.6 hPa ESE 13.2 km/h 22.5 km/h 20.3% 0.0 mm
16:14 40.2 °C 12.9 °C 1009.6 hPa ESE 10.3 km/h 23.7 km/h 20% 0.0 mm
16:19 40.2 °C 12.9 °C 1009.6 hPa ESE 10.9 km/h 25.9 km/h 20% 0.0 mm
16:24 40.2 °C 12.9 °C 1009.5 hPa SE 13.7 km/h 25.7 km/h 20% 0.0 mm
16:29 39.9 °C 12.8 °C 1009.4 hPa ESE 13.4 km/h 20.9 km/h 20% 0.0 mm
16:34 40.1 °C 12.9 °C 1009.4 hPa ESE 11.9 km/h 20.4 km/h 20% 0.0 mm
16:39 40.1 °C 12.9 °C 1009.2 hPa SE 11.8 km/h 20.9 km/h 20% 0.0 mm
16:44 40.3 °C 12.5 °C 1009.2 hPa ESE 11.1 km/h 20.9 km/h 19.4% 0.0 mm
16:49 40.3 °C 12.3 °C 1009.2 hPa SE 11.4 km/h 22.2 km/h 19.1% 0.0 mm
16:54 40.2 °C 12.5 °C 1009.1 hPa ESE 13 km/h 22.5 km/h 19.5% 0.0 mm
16:59 40.1 °C 12.2 °C 1009.1 hPa SE 12.8 km/h 24.1 km/h 19.2% 0.0 mm
17:04 40.1 °C 12.1 °C 1009.1 hPa SE 11.9 km/h 24.1 km/h 19% 0.0 mm
17:09 40.1 °C 12.2 °C 1009.0 hPa SE 11.8 km/h 22.2 km/h 19.2% 0.0 mm
17:14 40.2 °C 12.2 °C 1009.0 hPa SSE 11.1 km/h 22.5 km/h 19% 0.0 mm
17:19 40.3 °C 12.2 °C 1009.0 hPa ESE 11.2 km/h 20.9 km/h 19% 0.0 mm
17:24 40.2 °C 12.2 °C 1008.9 hPa ESE 11.9 km/h 24.5 km/h 19% 0.0 mm
17:29 40.1 °C 12.3 °C 1008.9 hPa ESE 12.3 km/h 24.1 km/h 19.2% 0.0 mm
17:34 40.2 °C 12.2 °C 1008.9 hPa ESE 14.8 km/h 24.1 km/h 19% 0.0 mm
17:39 40.2 °C 12.6 °C 1008.8 hPa ESE 14.7 km/h 24.1 km/h 19.5% 0.0 mm
17:44 40.2 °C 12.2 °C 1008.8 hPa SE 14 km/h 22.5 km/h 19% 0.0 mm
17:49 40.2 °C 12.5 °C 1008.8 hPa ESE 13.7 km/h 22.2 km/h 19.5% 0.0 mm
17:54 40.1 °C 12.3 °C 1008.6 hPa ESE 12.2 km/h 22.5 km/h 19.3% 0.0 mm
17:59 39.9 °C 12.4 °C 1008.6 hPa ESE 12.6 km/h 22.2 km/h 19.5% 0.0 mm
18:04 39.8 °C 11.9 °C 1008.6 hPa ESE 14 km/h 27 km/h 19% 0.0 mm
18:09 39.7 °C 12.2 °C 1008.5 hPa ESE 14.4 km/h 27.8 km/h 19.5% 0.0 mm
18:14 39.7 °C 12.2 °C 1008.5 hPa ESE 16.4 km/h 27.4 km/h 19.5% 0.0 mm
18:19 39.7 °C 12.6 °C 1008.5 hPa ESE 15.7 km/h 20.9 km/h 20% 0.0 mm
18:24 39.9 °C 12.7 °C 1008.4 hPa SE 11.1 km/h 18.5 km/h 19.9% 0.0 mm
18:29 39.9 °C 12.5 °C 1008.4 hPa ESE 11.1 km/h 19.3 km/h 19.7% 0.0 mm
18:34 39.9 °C 12.6 °C 1008.4 hPa SE 11.1 km/h 17.2 km/h 19.9% 0.0 mm
18:39 40 °C 12.3 °C 1008.4 hPa ESE 10.8 km/h 17.7 km/h 19.4% 0.0 mm
18:44 40 °C 13.4 °C 1008.4 hPa ESE 8.7 km/h 20.4 km/h 20.8% 0.0 mm
18:49 39.7 °C 13.4 °C 1008.4 hPa ESE 9.3 km/h 20.9 km/h 21.2% 0.0 mm
18:54 39.4 °C 13.9 °C 1008.4 hPa ESE 12.2 km/h 24.1 km/h 22.2% 0.0 mm
18:59 39.3 °C 14.3 °C 1008.4 hPa ESE 12.5 km/h 24.1 km/h 23% 0.0 mm
19:04 39.2 °C 14.3 °C 1008.4 hPa ESE 13.7 km/h 19.3 km/h 23% 0.0 mm
19:09 39.3 °C 14.3 °C 1008.3 hPa ESE 13.1 km/h 17.7 km/h 23% 0.0 mm
19:14 39.2 °C 14.6 °C 1008.3 hPa ESE 10.3 km/h 22.2 km/h 23.6% 0.0 mm
19:19 38.9 °C 14.7 °C 1008.3 hPa ESE 10.6 km/h 22.5 km/h 24% 0.0 mm
19:24 38.8 °C 14.6 °C 1008.2 hPa ESE 12.2 km/h 20.9 km/h 24% 0.0 mm
19:29 38.8 °C 14.6 °C 1008.2 hPa ESE 12 km/h 19.3 km/h 24% 0.0 mm
19:34 38.8 °C 14.6 °C 1008.3 hPa ESE 10.3 km/h 14.5 km/h 24% 0.0 mm
19:39 38.8 °C 14.6 °C 1008.3 hPa ESE 10 km/h 13 km/h 24% 0.0 mm
19:44 38.8 °C 14.6 °C 1008.3 hPa ESE 8.4 km/h 16.7 km/h 24% 0.0 mm
19:49 38.7 °C 14.5 °C 1008.3 hPa ESE 8.5 km/h 16.1 km/h 24% 0.0 mm
19:54 38.6 °C 14.5 °C 1008.2 hPa ESE 9.5 km/h 14.5 km/h 24% 0.0 mm
19:59 38.5 °C 14.5 °C 1008.2 hPa ESE 9 km/h 11.3 km/h 24.3% 0.0 mm
20:04 38.3 °C 14.8 °C 1008.2 hPa ESE 6.9 km/h 13 km/h 25% 0.0 mm
20:09 38.1 °C 14.7 °C 1008.2 hPa ESE 7.2 km/h 13.7 km/h 25.1% 0.0 mm
20:14 37.8 °C 15 °C 1008.2 hPa ESE 8.4 km/h 14.5 km/h 26% 0.0 mm
20:19 37.5 °C 15.2 °C 1008.4 hPa ESE 8.6 km/h 18.5 km/h 26.8% 0.0 mm
20:24 37.3 °C 15.1 °C 1008.4 hPa ESE 10.3 km/h 19.3 km/h 27% 0.0 mm
20:29 37.1 °C 15.3 °C 1008.4 hPa Este 10.1 km/h 14.5 km/h 27.5% 0.0 mm
20:34 36.9 °C 15.4 °C 1008.5 hPa Este 8.7 km/h 12.9 km/h 28% 0.0 mm
20:39 36.8 °C 15.3 °C 1008.5 hPa ESE 8.4 km/h 11.3 km/h 28% 0.0 mm
20:44 36.8 °C 15.4 °C 1008.5 hPa ESE 6.9 km/h 13 km/h 28.2% 0.0 mm
20:49 36.7 °C 15.7 °C 1008.6 hPa ESE 7 km/h 12.9 km/h 29% 0.0 mm
20:54 36.5 °C 15.6 °C 1008.6 hPa ESE 7.6 km/h 13 km/h 29% 0.0 mm
20:59 36.3 °C 15.4 °C 1008.6 hPa ESE 7.6 km/h 12.9 km/h 29% 0.0 mm
21:04 36.1 °C 15.5 °C 1008.8 hPa ESE 7.6 km/h 13 km/h 29.5% 0.0 mm
21:09 35.9 °C 15.6 °C 1008.8 hPa NNE 7.5 km/h 12.9 km/h 30% 0.0 mm
21:14 35.7 °C 15.5 °C 1008.8 hPa North 6.9 km/h 11.3 km/h 30% 0.0 mm
21:19 35.6 °C 15.3 °C 1009.2 hPa North 6.8 km/h 14.8 km/h 30.1% 0.0 mm
21:24 35.2 °C 15.1 °C 1009.2 hPa NNE 5.8 km/h 14.5 km/h 30% 0.0 mm
21:29 34.8 °C 15.6 °C 1009.2 hPa NNE 6.2 km/h 16.7 km/h 31.8% 0.0 mm
21:34 34.4 °C 17.2 °C 1009.5 hPa NNE 8.4 km/h 24.1 km/h 36.2% 0.0 mm
21:39 33.8 °C 18.4 °C 1009.5 hPa NE 9 km/h 24.1 km/h 40% 0.0 mm
21:44 33.4 °C 19.1 °C 1009.5 hPa NE 12.2 km/h 17.2 km/h 43% 0.0 mm
21:49 33.1 °C 19.6 °C 1009.8 hPa NE 11.9 km/h 17.7 km/h 45.3% 0.0 mm
21:54 32.7 °C 20 °C 1009.8 hPa NE 10 km/h 17.7 km/h 47.3% 0.0 mm
21:59 32.5 °C 20.2 °C 1009.8 hPa NE 9.7 km/h 14.8 km/h 48.4% 0.0 mm
22:04 32.3 °C 20.2 °C 1010.1 hPa NE 8.4 km/h 14.5 km/h 49% 0.0 mm
22:09 32.2 °C 20.3 °C 1010.1 hPa NE 8.1 km/h 11.3 km/h 49.7% 0.0 mm
22:14 32 °C 20.3 °C 1010.1 hPa NNE 6.9 km/h 11.3 km/h 50% 0.0 mm
22:19 31.8 °C 20.3 °C 1010.4 hPa NNE 6.9 km/h 13 km/h 50.6% 0.0 mm
22:24 31.7 °C 20.4 °C 1010.4 hPa North 6.5 km/h 12.9 km/h 51.4% 0.0 mm
22:29 31.6 °C 20.8 °C 1010.4 hPa NO 6.5 km/h 12.9 km/h 52.8% 0.0 mm
22:34 31.4 °C 21.1 °C 1010.8 hPa NO 6.5 km/h 11.3 km/h 54.5% 0.0 mm
22:39 31.2 °C 21.1 °C 1010.8 hPa NNO 6.3 km/h 9.7 km/h 55% 0.0 mm
22:44 31.1 °C 21 °C 1010.8 hPa NNO 5 km/h 8 km/h 55.1% 0.0 mm
22:49 31 °C 21.1 °C 1011.1 hPa NO 4.8 km/h 8.7 km/h 55.8% 0.0 mm
22:54 30.9 °C 21.3 °C 1011.1 hPa NNO 3.9 km/h 9.7 km/h 56.7% 0.0 mm
22:59 30.8 °C 21.4 °C 1011.1 hPa North 4.1 km/h 9.7 km/h 57.6% 0.0 mm
23:04 30.7 °C 21.5 °C 1011.1 hPa NNE 5 km/h 9.7 km/h 58% 0.0 mm
23:09 30.6 °C 21.6 °C 1011.1 hPa NNO 4.8 km/h 9.3 km/h 58.9% 0.0 mm
23:14 30.4 °C 21.8 °C 1011.1 hPa NNO 3.9 km/h 9.7 km/h 60.1% 0.0 mm
23:19 30.3 °C 21.9 °C 1011.2 hPa NNO 3.8 km/h 8.4 km/h 61.1% 0.0 mm
23:24 30.1 °C 22 °C 1011.2 hPa North 3.2 km/h 9.5 km/h 62% 0.0 mm
23:29 29.8 °C 22.1 °C 1011.2 hPa ENE 3.7 km/h 11.1 km/h 63.1% 0.0 mm
23:34 29.7 °C 22.2 °C 1011.3 hPa Oeste 6.4 km/h 11.3 km/h 64% 0.0 mm
23:39 29.7 °C 22.1 °C 1011.3 hPa NE 6.4 km/h 13.7 km/h 64% 0.0 mm
23:44 29.6 °C 22.1 °C 1011.3 hPa NNO 5.8 km/h 14.5 km/h 64% 0.0 mm
23:49 29.6 °C 22 °C 1011.3 hPa North 5.5 km/h 8 km/h 64% 0.0 mm
23:54 29.5 °C 22.1 °C 1011.2 hPa NNO 3.9 km/h 8 km/h 64.8% 0.0 mm
23:59 29.4 °C 22.1 °C 1011.2 hPa NNO 3.7 km/h 8 km/h 65% 0.0 mm
Murcia-Puente Tocinos, España
Compliments of Weather Underground - 3 mb

La estación de MeteoMurcia.com, publica sus datos en los siguientes proyectos:

Weather Underground PWS IMURCIAP2 Meteoclimatic www.awekas.at

W3Counter
Web Analytics